sensor_id;sensor_type;location;lat;lon;timestamp;P1;durP1;ratioP1;P2;durP2;ratioP2
38853;SDS011;24606;51.992;4.198;2023-01-20T00:00:24;4.87;;;2.97;;
38853;SDS011;24606;51.992;4.198;2023-01-20T00:05:26;9.95;;;2.08;;
38853;SDS011;24606;51.992;4.198;2023-01-20T00:10:27;4.70;;;2.50;;
38853;SDS011;24606;51.992;4.198;2023-01-20T00:15:30;3.83;;;2.63;;
38853;SDS011;24606;51.992;4.198;2023-01-20T00:20:32;5.35;;;3.08;;
38853;SDS011;24606;51.992;4.198;2023-01-20T00:25:34;3.63;;;2.10;;
38853;SDS011;24606;51.992;4.198;2023-01-20T00:30:38;2.58;;;1.90;;
38853;SDS011;24606;51.992;4.198;2023-01-20T00:35:40;3.70;;;2.03;;
38853;SDS011;24606;51.992;4.198;2023-01-20T00:40:42;2.70;;;1.90;;
38853;SDS011;24606;51.992;4.198;2023-01-20T00:45:45;2.63;;;1.83;;
38853;SDS011;24606;51.992;4.198;2023-01-20T00:50:47;4.22;;;2.20;;
38853;SDS011;24606;51.992;4.198;2023-01-20T00:55:50;4.53;;;2.03;;
38853;SDS011;24606;51.992;4.198;2023-01-20T01:00:53;3.43;;;2.33;;
38853;SDS011;24606;51.992;4.198;2023-01-20T01:06:07;4.28;;;2.72;;
38853;SDS011;24606;51.992;4.198;2023-01-20T01:11:11;3.63;;;1.75;;
38853;SDS011;24606;51.992;4.198;2023-01-20T01:16:14;4.80;;;2.00;;
38853;SDS011;24606;51.992;4.198;2023-01-20T01:21:16;2.60;;;1.95;;
38853;SDS011;24606;51.992;4.198;2023-01-20T01:26:18;4.20;;;2.00;;
38853;SDS011;24606;51.992;4.198;2023-01-20T01:31:22;4.75;;;2.60;;
38853;SDS011;24606;51.992;4.198;2023-01-20T01:36:24;3.88;;;2.00;;
38853;SDS011;24606;51.992;4.198;2023-01-20T01:41:26;3.53;;;2.30;;
38853;SDS011;24606;51.992;4.198;2023-01-20T01:46:29;3.07;;;2.30;;
38853;SDS011;24606;51.992;4.198;2023-01-20T01:51:32;4.93;;;2.60;;
38853;SDS011;24606;51.992;4.198;2023-01-20T01:56:36;3.38;;;2.08;;
38853;SDS011;24606;51.992;4.198;2023-01-20T02:01:42;3.20;;;1.92;;
38853;SDS011;24606;51.992;4.198;2023-01-20T02:06:49;2.97;;;2.00;;
38853;SDS011;24606;51.992;4.198;2023-01-20T02:11:54;2.67;;;2.15;;
38853;SDS011;24606;51.992;4.198;2023-01-20T02:17:01;3.10;;;1.85;;
38853;SDS011;24606;51.992;4.198;2023-01-20T02:22:14;3.25;;;1.70;;
38853;SDS011;24606;51.992;4.198;2023-01-20T02:27:27;2.83;;;2.00;;
38853;SDS011;24606;51.992;4.198;2023-01-20T02:32:48;3.15;;;2.47;;
38853;SDS011;24606;51.992;4.198;2023-01-20T02:37:58;4.53;;;2.27;;
38853;SDS011;24606;51.992;4.198;2023-01-20T02:43:15;5.20;;;1.92;;
38853;SDS011;24606;51.992;4.198;2023-01-20T02:48:23;2.63;;;1.73;;
38853;SDS011;24606;51.992;4.198;2023-01-20T02:53:28;4.35;;;1.85;;
38853;SDS011;24606;51.992;4.198;2023-01-20T02:58:34;2.10;;;1.73;;
38853;SDS011;24606;51.992;4.198;2023-01-20T03:03:43;2.72;;;2.25;;
38853;SDS011;24606;51.992;4.198;2023-01-20T03:08:47;2.85;;;1.77;;
38853;SDS011;24606;51.992;4.198;2023-01-20T03:13:53;5.72;;;2.33;;
38853;SDS011;24606;51.992;4.198;2023-01-20T03:19:01;2.90;;;1.95;;
38853;SDS011;24606;51.992;4.198;2023-01-20T03:24:03;5.47;;;2.15;;
38853;SDS011;24606;51.992;4.198;2023-01-20T03:29:08;3.17;;;1.85;;
38853;SDS011;24606;51.992;4.198;2023-01-20T03:34:14;2.85;;;1.55;;
38853;SDS011;24606;51.992;4.198;2023-01-20T03:39:18;2.80;;;1.77;;
38853;SDS011;24606;51.992;4.198;2023-01-20T03:44:22;2.92;;;1.67;;
38853;SDS011;24606;51.992;4.198;2023-01-20T03:49:34;2.63;;;1.70;;
38853;SDS011;24606;51.992;4.198;2023-01-20T03:59:49;4.70;;;2.13;;
38853;SDS011;24606;51.992;4.198;2023-01-20T04:04:54;1.83;;;1.30;;
38853;SDS011;24606;51.992;4.198;2023-01-20T04:09:57;2.75;;;1.95;;
38853;SDS011;24606;51.992;4.198;2023-01-20T04:15:03;3.53;;;2.10;;
38853;SDS011;24606;51.992;4.198;2023-01-20T04:20:10;14.73;;;8.48;;
38853;SDS011;24606;51.992;4.198;2023-01-20T04:25:16;3.65;;;2.30;;
38853;SDS011;24606;51.992;4.198;2023-01-20T04:30:24;14.02;;;5.97;;
38853;SDS011;24606;51.992;4.198;2023-01-20T04:35:27;10.02;;;5.30;;
38853;SDS011;24606;51.992;4.198;2023-01-20T04:40:29;12.98;;;6.45;;
38853;SDS011;24606;51.992;4.198;2023-01-20T04:45:31;15.13;;;7.37;;
38853;SDS011;24606;51.992;4.198;2023-01-20T04:50:37;4.55;;;3.20;;
38853;SDS011;24606;51.992;4.198;2023-01-20T04:55:40;7.93;;;4.97;;
38853;SDS011;24606;51.992;4.198;2023-01-20T05:00:42;4.20;;;2.33;;
38853;SDS011;24606;51.992;4.198;2023-01-20T05:05:50;2.63;;;2.00;;
38853;SDS011;24606;51.992;4.198;2023-01-20T05:10:52;4.68;;;2.00;;
38853;SDS011;24606;51.992;4.198;2023-01-20T05:15:54;3.38;;;2.17;;
38853;SDS011;24606;51.992;4.198;2023-01-20T05:20:57;3.45;;;1.40;;
38853;SDS011;24606;51.992;4.198;2023-01-20T05:25:59;2.15;;;1.77;;
38853;SDS011;24606;51.992;4.198;2023-01-20T05:31:01;3.83;;;1.47;;
38853;SDS011;24606;51.992;4.198;2023-01-20T05:36:05;4.85;;;2.13;;
38853;SDS011;24606;51.992;4.198;2023-01-20T05:41:08;3.10;;;1.70;;
38853;SDS011;24606;51.992;4.198;2023-01-20T05:46:10;3.42;;;1.90;;
38853;SDS011;24606;51.992;4.198;2023-01-20T05:51:13;1.87;;;1.50;;
38853;SDS011;24606;51.992;4.198;2023-01-20T05:56:15;2.05;;;1.63;;
38853;SDS011;24606;51.992;4.198;2023-01-20T06:01:17;2.87;;;1.60;;
38853;SDS011;24606;51.992;4.198;2023-01-20T06:06:20;4.23;;;1.27;;
38853;SDS011;24606;51.992;4.198;2023-01-20T06:11:22;2.28;;;1.30;;
38853;SDS011;24606;51.992;4.198;2023-01-20T06:16:24;6.63;;;1.65;;
38853;SDS011;24606;51.992;4.198;2023-01-20T06:21:27;2.17;;;1.40;;
38853;SDS011;24606;51.992;4.198;2023-01-20T06:26:29;3.20;;;1.50;;
38853;SDS011;24606;51.992;4.198;2023-01-20T06:31:31;4.30;;;1.53;;
38853;SDS011;24606;51.992;4.198;2023-01-20T06:36:34;5.27;;;1.90;;
38853;SDS011;24606;51.992;4.198;2023-01-20T06:41:36;2.95;;;1.70;;
38853;SDS011;24606;51.992;4.198;2023-01-20T06:46:38;1.50;;;1.13;;
38853;SDS011;24606;51.992;4.198;2023-01-20T06:51:41;3.10;;;1.83;;
38853;SDS011;24606;51.992;4.198;2023-01-20T06:56:43;3.00;;;1.38;;
38853;SDS011;24606;51.992;4.198;2023-01-20T07:14:54;2.75;;;1.20;;
38853;SDS011;24606;51.992;4.198;2023-01-20T07:19:56;3.33;;;0.77;;
38853;SDS011;24606;51.992;4.198;2023-01-20T07:24:58;4.82;;;1.23;;
38853;SDS011;24606;51.992;4.198;2023-01-20T07:30:01;1.65;;;0.95;;
38853;SDS011;24606;51.992;4.198;2023-01-20T07:35:04;2.92;;;1.40;;
38853;SDS011;24606;51.992;4.198;2023-01-20T07:40:07;4.88;;;1.13;;
38853;SDS011;24606;51.992;4.198;2023-01-20T07:45:11;10.23;;;2.03;;
38853;SDS011;24606;51.992;4.198;2023-01-20T07:50:13;4.60;;;1.38;;
38853;SDS011;24606;51.992;4.198;2023-01-20T07:55:15;1.48;;;0.70;;
38853;SDS011;24606;51.992;4.198;2023-01-20T08:00:19;6.40;;;1.00;;
38853;SDS011;24606;51.992;4.198;2023-01-20T08:05:21;2.55;;;0.90;;
38853;SDS011;24606;51.992;4.198;2023-01-20T08:10:23;1.95;;;0.60;;
38853;SDS011;24606;51.992;4.198;2023-01-20T08:15:26;1.95;;;1.00;;
38853;SDS011;24606;51.992;4.198;2023-01-20T08:25:30;4.45;;;1.30;;
38853;SDS011;24606;51.992;4.198;2023-01-20T08:30:33;4.05;;;0.63;;
38853;SDS011;24606;51.992;4.198;2023-01-20T08:35:35;3.47;;;0.70;;
38853;SDS011;24606;51.992;4.198;2023-01-20T08:40:39;4.70;;;0.60;;
38853;SDS011;24606;51.992;4.198;2023-01-20T08:45:43;4.13;;;0.70;;
38853;SDS011;24606;51.992;4.198;2023-01-20T08:50:45;2.10;;;0.80;;
38853;SDS011;24606;51.992;4.198;2023-01-20T08:55:53;0.98;;;0.60;;
38853;SDS011;24606;51.992;4.198;2023-01-20T09:00:57;3.53;;;1.05;;
38853;SDS011;24606;51.992;4.198;2023-01-20T09:06:00;4.13;;;0.77;;
38853;SDS011;24606;51.992;4.198;2023-01-20T09:11:03;2.28;;;0.85;;
38853;SDS011;24606;51.992;4.198;2023-01-20T09:16:07;3.03;;;1.00;;
38853;SDS011;24606;51.992;4.198;2023-01-20T09:21:10;2.30;;;0.60;;
38853;SDS011;24606;51.992;4.198;2023-01-20T09:26:13;2.17;;;0.65;;
38853;SDS011;24606;51.992;4.198;2023-01-20T09:31:16;4.63;;;0.75;;
38853;SDS011;24606;51.992;4.198;2023-01-20T09:36:18;4.85;;;0.68;;
38853;SDS011;24606;51.992;4.198;2023-01-20T09:41:23;2.77;;;0.40;;
38853;SDS011;24606;51.992;4.198;2023-01-20T09:46:50;6.28;;;0.70;;
38853;SDS011;24606;51.992;4.198;2023-01-20T09:52:19;1.03;;;0.40;;
38853;SDS011;24606;51.992;4.198;2023-01-20T09:57:46;3.30;;;0.63;;
38853;SDS011;24606;51.992;4.198;2023-01-20T10:02:55;0.57;;;0.40;;
38853;SDS011;24606;51.992;4.198;2023-01-20T10:08:03;2.90;;;0.55;;
38853;SDS011;24606;51.992;4.198;2023-01-20T10:13:10;2.28;;;0.63;;
38853;SDS011;24606;51.992;4.198;2023-01-20T10:18:19;1.02;;;0.43;;
38853;SDS011;24606;51.992;4.198;2023-01-20T10:23:25;2.03;;;0.50;;
38853;SDS011;24606;51.992;4.198;2023-01-20T10:28:31;4.43;;;0.52;;
38853;SDS011;24606;51.992;4.198;2023-01-20T10:33:39;1.15;;;0.40;;
38853;SDS011;24606;51.992;4.198;2023-01-20T10:38:46;2.67;;;0.50;;
38853;SDS011;24606;51.992;4.198;2023-01-20T10:43:54;1.85;;;0.50;;
38853;SDS011;24606;51.992;4.198;2023-01-20T10:49:04;1.50;;;0.77;;
38853;SDS011;24606;51.992;4.198;2023-01-20T10:54:25;4.97;;;0.70;;
38853;SDS011;24606;51.992;4.198;2023-01-20T10:59:39;2.92;;;1.02;;
38853;SDS011;24606;51.992;4.198;2023-01-20T11:04:46;2.83;;;0.65;;
38853;SDS011;24606;51.992;4.198;2023-01-20T11:09:54;3.30;;;1.02;;
38853;SDS011;24606;51.992;4.198;2023-01-20T11:14:56;8.40;;;1.27;;
38853;SDS011;24606;51.992;4.198;2023-01-20T11:20:05;11.57;;;2.03;;
38853;SDS011;24606;51.992;4.198;2023-01-20T11:25:11;10.40;;;1.70;;
38853;SDS011;24606;51.992;4.198;2023-01-20T11:30:25;8.07;;;1.40;;
38853;SDS011;24606;51.992;4.198;2023-01-20T11:35:30;6.20;;;1.75;;
38853;SDS011;24606;51.992;4.198;2023-01-20T11:40:32;11.73;;;1.88;;
38853;SDS011;24606;51.992;4.198;2023-01-20T11:45:35;12.20;;;2.03;;
38853;SDS011;24606;51.992;4.198;2023-01-20T11:50:38;9.20;;;1.25;;
38853;SDS011;24606;51.992;4.198;2023-01-20T11:55:43;11.23;;;1.85;;
38853;SDS011;24606;51.992;4.198;2023-01-20T12:00:49;2.50;;;1.00;;
38853;SDS011;24606;51.992;4.198;2023-01-20T12:05:55;1.20;;;0.60;;
38853;SDS011;24606;51.992;4.198;2023-01-20T12:11:03;2.42;;;0.60;;
38853;SDS011;24606;51.992;4.198;2023-01-20T12:16:07;6.38;;;0.80;;
38853;SDS011;24606;51.992;4.198;2023-01-20T12:21:13;2.30;;;0.77;;
38853;SDS011;24606;51.992;4.198;2023-01-20T12:26:18;3.45;;;0.82;;
38853;SDS011;24606;51.992;4.198;2023-01-20T12:31:21;4.00;;;0.90;;
38853;SDS011;24606;51.992;4.198;2023-01-20T12:41:47;3.13;;;0.80;;
38853;SDS011;24606;51.992;4.198;2023-01-20T12:47:24;2.90;;;0.65;;
38853;SDS011;24606;51.992;4.198;2023-01-20T12:52:43;3.88;;;0.70;;
38853;SDS011;24606;51.992;4.198;2023-01-20T12:58:06;2.97;;;0.80;;
38853;SDS011;24606;51.992;4.198;2023-01-20T13:03:28;5.25;;;0.65;;
38853;SDS011;24606;51.992;4.198;2023-01-20T13:08:59;2.55;;;0.90;;
38853;SDS011;24606;51.992;4.198;2023-01-20T13:14:16;10.25;;;1.38;;
38853;SDS011;24606;51.992;4.198;2023-01-20T13:19:23;7.43;;;1.20;;
38853;SDS011;24606;51.992;4.198;2023-01-20T13:24:29;4.38;;;1.15;;
38853;SDS011;24606;51.992;4.198;2023-01-20T13:29:42;9.02;;;1.23;;
38853;SDS011;24606;51.992;4.198;2023-01-20T13:34:54;13.30;;;1.38;;
38853;SDS011;24606;51.992;4.198;2023-01-20T13:45:12;10.13;;;1.33;;
38853;SDS011;24606;51.992;4.198;2023-01-20T13:50:22;8.13;;;1.88;;
38853;SDS011;24606;51.992;4.198;2023-01-20T13:55:26;9.52;;;1.85;;
38853;SDS011;24606;51.992;4.198;2023-01-20T14:00:30;3.45;;;0.98;;
38853;SDS011;24606;51.992;4.198;2023-01-20T14:05:32;4.45;;;1.30;;
38853;SDS011;24606;51.992;4.198;2023-01-20T14:10:34;4.25;;;0.70;;
38853;SDS011;24606;51.992;4.198;2023-01-20T14:15:38;4.10;;;1.02;;
38853;SDS011;24606;51.992;4.198;2023-01-20T14:20:40;7.03;;;1.10;;
38853;SDS011;24606;51.992;4.198;2023-01-20T14:25:48;5.47;;;0.90;;
38853;SDS011;24606;51.992;4.198;2023-01-20T14:36:23;4.28;;;1.17;;
38853;SDS011;24606;51.992;4.198;2023-01-20T14:46:49;5.93;;;1.45;;
38853;SDS011;24606;51.992;4.198;2023-01-20T14:51:53;7.63;;;1.30;;
38853;SDS011;24606;51.992;4.198;2023-01-20T14:56:55;3.60;;;1.20;;
38853;SDS011;24606;51.992;4.198;2023-01-20T15:02:01;3.60;;;0.98;;
38853;SDS011;24606;51.992;4.198;2023-01-20T15:07:11;5.50;;;1.13;;
38853;SDS011;24606;51.992;4.198;2023-01-20T15:12:30;6.75;;;0.80;;
38853;SDS011;24606;51.992;4.198;2023-01-20T15:17:36;2.22;;;0.90;;
38853;SDS011;24606;51.992;4.198;2023-01-20T15:22:57;1.73;;;0.82;;
38853;SDS011;24606;51.992;4.198;2023-01-20T15:27:59;3.08;;;0.80;;
38853;SDS011;24606;51.992;4.198;2023-01-20T15:33:04;2.28;;;0.70;;
38853;SDS011;24606;51.992;4.198;2023-01-20T15:38:08;2.03;;;0.82;;
38853;SDS011;24606;51.992;4.198;2023-01-20T15:43:13;5.40;;;1.40;;
38853;SDS011;24606;51.992;4.198;2023-01-20T15:48:17;5.47;;;1.25;;
38853;SDS011;24606;51.992;4.198;2023-01-20T15:53:21;2.70;;;0.90;;
38853;SDS011;24606;51.992;4.198;2023-01-20T15:58:24;4.95;;;1.38;;
38853;SDS011;24606;51.992;4.198;2023-01-20T16:03:30;2.15;;;0.90;;
38853;SDS011;24606;51.992;4.198;2023-01-20T16:08:35;1.67;;;1.05;;
38853;SDS011;24606;51.992;4.198;2023-01-20T16:13:38;3.08;;;0.85;;
38853;SDS011;24606;51.992;4.198;2023-01-20T16:18:41;3.63;;;0.80;;
38853;SDS011;24606;51.992;4.198;2023-01-20T16:23:44;2.80;;;0.85;;
38853;SDS011;24606;51.992;4.198;2023-01-20T16:28:46;4.55;;;1.23;;
38853;SDS011;24606;51.992;4.198;2023-01-20T16:33:49;1.65;;;0.95;;
38853;SDS011;24606;51.992;4.198;2023-01-20T16:38:53;2.35;;;0.80;;
38853;SDS011;24606;51.992;4.198;2023-01-20T16:43:55;2.42;;;1.25;;
38853;SDS011;24606;51.992;4.198;2023-01-20T16:54:02;0.70;;;0.70;;
38853;SDS011;24606;51.992;4.198;2023-01-20T16:59:04;9.43;;;3.23;;
38853;SDS011;24606;51.992;4.198;2023-01-20T17:04:08;3.40;;;2.05;;
38853;SDS011;24606;51.992;4.198;2023-01-20T17:09:10;2.60;;;1.35;;
38853;SDS011;24606;51.992;4.198;2023-01-20T17:19:16;1.83;;;1.25;;
38853;SDS011;24606;51.992;4.198;2023-01-20T17:24:17;1.48;;;1.05;;
38853;SDS011;24606;51.992;4.198;2023-01-20T17:29:19;5.07;;;2.00;;
38853;SDS011;24606;51.992;4.198;2023-01-20T17:34:23;8.25;;;2.72;;
38853;SDS011;24606;51.992;4.198;2023-01-20T17:39:25;5.20;;;2.50;;
38853;SDS011;24606;51.992;4.198;2023-01-20T17:44:27;3.90;;;2.00;;
38853;SDS011;24606;51.992;4.198;2023-01-20T17:49:30;5.27;;;2.47;;
38853;SDS011;24606;51.992;4.198;2023-01-20T17:54:32;10.15;;;3.88;;
38853;SDS011;24606;51.992;4.198;2023-01-20T17:59:34;10.52;;;3.38;;
38853;SDS011;24606;51.992;4.198;2023-01-20T18:04:37;14.07;;;3.23;;
38853;SDS011;24606;51.992;4.198;2023-01-20T18:09:39;12.13;;;3.70;;
38853;SDS011;24606;51.992;4.198;2023-01-20T18:14:41;12.03;;;3.67;;
38853;SDS011;24606;51.992;4.198;2023-01-20T18:19:44;13.25;;;3.40;;
38853;SDS011;24606;51.992;4.198;2023-01-20T18:24:46;9.85;;;3.22;;
38853;SDS011;24606;51.992;4.198;2023-01-20T18:29:48;6.40;;;3.70;;
38853;SDS011;24606;51.992;4.198;2023-01-20T18:34:51;9.40;;;2.97;;
38853;SDS011;24606;51.992;4.198;2023-01-20T18:39:53;6.38;;;2.90;;
38853;SDS011;24606;51.992;4.198;2023-01-20T18:44:55;6.10;;;2.67;;
38853;SDS011;24606;51.992;4.198;2023-01-20T18:49:59;3.67;;;2.17;;
38853;SDS011;24606;51.992;4.198;2023-01-20T18:55:00;7.28;;;2.22;;
38853;SDS011;24606;51.992;4.198;2023-01-20T19:00:03;6.30;;;2.00;;
38853;SDS011;24606;51.992;4.198;2023-01-20T19:05:07;6.22;;;2.20;;
38853;SDS011;24606;51.992;4.198;2023-01-20T19:10:10;6.75;;;2.45;;
38853;SDS011;24606;51.992;4.198;2023-01-20T19:15:11;6.35;;;2.53;;
38853;SDS011;24606;51.992;4.198;2023-01-20T19:20:15;5.57;;;2.60;;
38853;SDS011;24606;51.992;4.198;2023-01-20T19:25:19;3.30;;;1.85;;
38853;SDS011;24606;51.992;4.198;2023-01-20T19:30:22;4.35;;;1.85;;
38853;SDS011;24606;51.992;4.198;2023-01-20T19:35:26;8.40;;;2.13;;
38853;SDS011;24606;51.992;4.198;2023-01-20T19:40:30;4.25;;;1.75;;
38853;SDS011;24606;51.992;4.198;2023-01-20T19:45:34;6.83;;;2.20;;
38853;SDS011;24606;51.992;4.198;2023-01-20T19:50:38;10.88;;;2.17;;
38853;SDS011;24606;51.992;4.198;2023-01-20T19:55:41;6.85;;;2.40;;
38853;SDS011;24606;51.992;4.198;2023-01-20T20:00:42;10.40;;;2.92;;
38853;SDS011;24606;51.992;4.198;2023-01-20T20:05:46;8.30;;;2.55;;
38853;SDS011;24606;51.992;4.198;2023-01-20T20:10:47;12.70;;;2.67;;
38853;SDS011;24606;51.992;4.198;2023-01-20T20:15:57;10.68;;;2.88;;
38853;SDS011;24606;51.992;4.198;2023-01-20T20:21:02;5.75;;;2.13;;
38853;SDS011;24606;51.992;4.198;2023-01-20T20:26:04;9.23;;;2.20;;
38853;SDS011;24606;51.992;4.198;2023-01-20T20:31:10;9.10;;;2.00;;
38853;SDS011;24606;51.992;4.198;2023-01-20T20:36:14;11.77;;;3.80;;
38853;SDS011;24606;51.992;4.198;2023-01-20T20:41:16;4.20;;;2.00;;
38853;SDS011;24606;51.992;4.198;2023-01-20T20:46:18;5.43;;;2.22;;
38853;SDS011;24606;51.992;4.198;2023-01-20T20:51:22;11.75;;;2.92;;
38853;SDS011;24606;51.992;4.198;2023-01-20T20:56:24;12.77;;;2.30;;
38853;SDS011;24606;51.992;4.198;2023-01-20T21:01:31;6.10;;;2.17;;
38853;SDS011;24606;51.992;4.198;2023-01-20T21:06:35;5.22;;;2.00;;
38853;SDS011;24606;51.992;4.198;2023-01-20T21:11:37;4.78;;;2.15;;
38853;SDS011;24606;51.992;4.198;2023-01-20T21:16:39;9.87;;;3.07;;
38853;SDS011;24606;51.992;4.198;2023-01-20T21:21:42;7.20;;;2.50;;
38853;SDS011;24606;51.992;4.198;2023-01-20T21:26:44;7.70;;;3.78;;
38853;SDS011;24606;51.992;4.198;2023-01-20T21:31:46;8.77;;;3.30;;
38853;SDS011;24606;51.992;4.198;2023-01-20T21:36:50;9.13;;;3.72;;
38853;SDS011;24606;51.992;4.198;2023-01-20T21:41:52;8.65;;;3.33;;
38853;SDS011;24606;51.992;4.198;2023-01-20T21:46:54;5.57;;;3.17;;
38853;SDS011;24606;51.992;4.198;2023-01-20T21:51:58;6.35;;;3.13;;
38853;SDS011;24606;51.992;4.198;2023-01-20T21:57:18;4.97;;;2.90;;
38853;SDS011;24606;51.992;4.198;2023-01-20T22:02:21;6.47;;;3.50;;
38853;SDS011;24606;51.992;4.198;2023-01-20T22:07:24;6.60;;;3.03;;
38853;SDS011;24606;51.992;4.198;2023-01-20T22:12:26;4.68;;;3.10;;
38853;SDS011;24606;51.992;4.198;2023-01-20T22:17:32;5.65;;;2.60;;
38853;SDS011;24606;51.992;4.198;2023-01-20T22:22:35;6.03;;;2.75;;
38853;SDS011;24606;51.992;4.198;2023-01-20T22:27:37;5.95;;;3.25;;
38853;SDS011;24606;51.992;4.198;2023-01-20T22:32:39;6.60;;;3.30;;
38853;SDS011;24606;51.992;4.198;2023-01-20T22:37:42;10.37;;;2.97;;
38853;SDS011;24606;51.992;4.198;2023-01-20T22:42:44;5.50;;;3.22;;
38853;SDS011;24606;51.992;4.198;2023-01-20T22:47:46;5.10;;;3.20;;
38853;SDS011;24606;51.992;4.198;2023-01-20T22:52:49;4.60;;;2.97;;
38853;SDS011;24606;51.992;4.198;2023-01-20T22:57:51;5.22;;;3.20;;
38853;SDS011;24606;51.992;4.198;2023-01-20T23:02:53;9.10;;;3.20;;
38853;SDS011;24606;51.992;4.198;2023-01-20T23:07:56;6.53;;;2.70;;
38853;SDS011;24606;51.992;4.198;2023-01-20T23:12:58;7.50;;;3.28;;
38853;SDS011;24606;51.992;4.198;2023-01-20T23:18:00;4.67;;;2.93;;
38853;SDS011;24606;51.992;4.198;2023-01-20T23:23:03;6.50;;;3.80;;
38853;SDS011;24606;51.992;4.198;2023-01-20T23:28:05;7.47;;;3.45;;
38853;SDS011;24606;51.992;4.198;2023-01-20T23:33:07;7.37;;;3.43;;
38853;SDS011;24606;51.992;4.198;2023-01-20T23:38:11;5.78;;;4.00;;
38853;SDS011;24606;51.992;4.198;2023-01-20T23:43:13;5.85;;;3.30;;
38853;SDS011;24606;51.992;4.198;2023-01-20T23:48:15;10.03;;;3.50;;
38853;SDS011;24606;51.992;4.198;2023-01-20T23:53:19;5.18;;;3.10;;
38853;SDS011;24606;51.992;4.198;2023-01-20T23:58:20;6.05;;;3.30;;
